createdAt,value
2022-09-22T00:01:40.283Z,5.22
2022-09-22T00:06:47.337Z,4.35
2022-09-22T00:11:54.024Z,4.20
2022-09-22T00:16:58.649Z,6.90
2022-09-22T00:27:05.112Z,6.72
2022-09-22T00:32:07.841Z,6.10
2022-09-22T00:37:10.379Z,5.65
2022-09-22T00:42:14.466Z,5.60
2022-09-22T00:47:28.129Z,4.15
2022-09-22T00:52:34.357Z,4.68
2022-09-22T00:57:40.465Z,3.75
2022-09-22T01:02:43.312Z,4.65
2022-09-22T01:07:47.607Z,5.72
2022-09-22T01:13:02.709Z,3.45
2022-09-22T01:18:16.461Z,7.05
2022-09-22T01:23:42.537Z,6.07
2022-09-22T01:29:18.586Z,3.90
2022-09-22T01:34:30.028Z,4.45
2022-09-22T01:39:39.880Z,3.78
2022-09-22T01:44:49.225Z,4.32
2022-09-22T01:49:57.694Z,4.43
2022-09-22T01:55:04.942Z,4.07
2022-09-22T02:00:10.088Z,4.53
2022-09-22T02:05:19.470Z,5.88
2022-09-22T02:10:29.209Z,8.35
2022-09-22T02:15:49.833Z,4.97
2022-09-22T02:20:53.811Z,7.90
2022-09-22T02:25:56.755Z,6.03
2022-09-22T02:31:19.627Z,6.07
2022-09-22T02:36:51.823Z,10.20
2022-09-22T02:42:07.546Z,7.35
2022-09-22T02:47:15.034Z,6.55
2022-09-22T02:52:21.071Z,9.40
2022-09-22T02:57:23.992Z,5.60
2022-09-22T03:02:26.751Z,6.80
2022-09-22T03:07:30.680Z,6.55
2022-09-22T03:12:33.173Z,4.20
2022-09-22T03:17:35.664Z,5.70
2022-09-22T03:22:40.513Z,5.57
2022-09-22T03:27:43.214Z,5.20
2022-09-22T03:32:48.508Z,4.63
2022-09-22T03:37:52.339Z,6.20
2022-09-22T03:42:54.978Z,5.50
2022-09-22T03:47:59.031Z,4.32
2022-09-22T03:53:02.813Z,11.23
2022-09-22T03:58:05.277Z,4.87
2022-09-22T04:03:08.856Z,6.63
2022-09-22T04:08:12.789Z,6.57
2022-09-22T04:13:15.924Z,4.50
2022-09-22T04:18:18.445Z,5.47
2022-09-22T04:23:22.264Z,6.05
2022-09-22T04:28:25.074Z,7.00
2022-09-22T04:33:28.071Z,5.22
2022-09-22T04:38:31.889Z,6.80
2022-09-22T04:43:34.361Z,6.37
2022-09-22T04:48:37.154Z,7.22
2022-09-22T04:53:40.954Z,5.68
2022-09-22T04:58:43.411Z,6.60
2022-09-22T05:03:46.108Z,6.38
2022-09-22T05:08:49.905Z,6.90
2022-09-22T05:14:00.199Z,5.87
2022-09-22T05:19:02.682Z,9.13
2022-09-22T05:24:06.994Z,7.55
2022-09-22T05:29:09.989Z,6.95
2022-09-22T05:34:12.628Z,9.82
2022-09-22T05:39:16.709Z,10.75
2022-09-22T05:44:19.555Z,6.30
2022-09-22T05:49:22.020Z,9.20
2022-09-22T05:54:26.119Z,7.55
2022-09-22T05:59:28.577Z,10.18
2022-09-22T06:04:31.232Z,6.47
2022-09-22T06:09:35.016Z,6.68
2022-09-22T06:14:37.762Z,10.77
2022-09-22T06:19:41.560Z,7.72
2022-09-22T06:24:45.891Z,9.13
2022-09-22T06:29:48.684Z,6.43
2022-09-22T06:34:51.494Z,6.15
2022-09-22T06:39:55.424Z,7.45
2022-09-22T06:44:57.880Z,6.57
2022-09-22T06:50:02.300Z,6.13
2022-09-22T06:55:07.260Z,5.05
2022-09-22T07:00:11.282Z,11.05
2022-09-22T07:05:18.609Z,5.82
2022-09-22T07:10:22.364Z,9.10
2022-09-22T07:15:24.768Z,6.03
2022-09-22T07:20:28.956Z,9.75
2022-09-22T07:25:35.907Z,7.70
2022-09-22T07:30:40.228Z,7.85
2022-09-22T07:35:42.767Z,6.05
2022-09-22T07:40:54.784Z,9.25
2022-09-22T07:45:58.327Z,5.18
2022-09-22T07:51:00.752Z,6.70
2022-09-22T07:56:06.208Z,5.75
2022-09-22T08:01:09.929Z,6.50
2022-09-22T08:06:13.464Z,7.20
2022-09-22T08:11:19.064Z,5.78
2022-09-22T08:16:22.597Z,8.60
2022-09-22T08:21:25.994Z,10.53
2022-09-22T08:26:29.851Z,17.50
2022-09-22T08:31:33.276Z,18.65
2022-09-22T08:36:37.753Z,27.87
2022-09-22T08:46:51.308Z,9.13
2022-09-22T08:51:58.831Z,8.07
2022-09-22T08:57:15.590Z,8.65
2022-09-22T09:02:36.326Z,8.15
2022-09-22T09:07:48.389Z,8.15
2022-09-22T09:13:09.077Z,7.68
2022-09-22T09:18:15.686Z,7.72
2022-09-22T09:23:20.156Z,5.95
2022-09-22T09:28:33.774Z,5.80
2022-09-22T09:33:43.740Z,6.20
2022-09-22T09:38:51.854Z,7.30
2022-09-22T09:43:57.682Z,5.35
2022-09-22T09:49:08.132Z,4.03
2022-09-22T09:54:16.971Z,3.33
2022-09-22T09:59:45.415Z,5.15
2022-09-22T10:04:52.889Z,5.10
2022-09-22T10:09:57.084Z,4.15
2022-09-22T10:15:02.480Z,2.92
2022-09-22T10:20:20.359Z,6.82
2022-09-22T10:25:24.970Z,4.38
2022-09-22T10:30:37.229Z,5.25
2022-09-22T10:35:41.185Z,3.95
2022-09-22T10:40:48.755Z,3.70
2022-09-22T10:46:12.822Z,3.40
2022-09-22T10:51:27.217Z,4.53
2022-09-22T10:56:37.578Z,2.60
2022-09-22T11:01:57.040Z,2.63
2022-09-22T11:07:32.715Z,2.42
2022-09-22T11:12:49.497Z,2.67
2022-09-22T11:18:08.102Z,3.55
2022-09-22T11:23:47.376Z,6.22
2022-09-22T11:29:07.641Z,4.00
2022-09-22T11:34:42.993Z,4.45
2022-09-22T11:39:52.994Z,3.45
2022-09-22T11:45:06.185Z,3.67
2022-09-22T11:50:25.532Z,3.27
2022-09-22T11:55:37.456Z,4.72
2022-09-22T12:00:45.658Z,3.80
2022-09-22T12:05:54.364Z,5.82
2022-09-22T12:10:57.395Z,3.45
2022-09-22T12:21:24.376Z,4.60
2022-09-22T12:26:30.910Z,5.68
2022-09-22T12:31:36.206Z,5.82
2022-09-22T12:36:41.285Z,5.38
2022-09-22T12:41:48.068Z,1.67
2022-09-22T12:46:51.592Z,1.98
2022-09-22T12:57:00.379Z,1.95
2022-09-22T13:02:27.412Z,0.50
2022-09-22T13:07:37.410Z,1.23
2022-09-22T13:12:39.939Z,1.77
2022-09-22T13:17:44.624Z,0.60
2022-09-22T13:22:48.726Z,1.02
2022-09-22T13:33:19.808Z,4.55
2022-09-22T13:38:24.861Z,3.90
2022-09-22T13:43:31.918Z,1.20
2022-09-22T13:48:37.287Z,1.52
2022-09-22T13:53:46.204Z,1.60
2022-09-22T13:58:51.380Z,0.88
2022-09-22T14:03:55.190Z,3.22
2022-09-22T14:14:06.763Z,2.00
2022-09-22T14:19:24.113Z,1.10
2022-09-22T14:24:29.920Z,4.55
2022-09-22T14:29:35.374Z,1.90
2022-09-22T14:34:39.080Z,3.63
2022-09-22T14:39:46.760Z,2.50
2022-09-22T14:44:51.272Z,3.42
2022-09-22T14:50:14.340Z,0.80
2022-09-22T14:55:28.729Z,1.10
2022-09-22T15:00:49.373Z,1.15
2022-09-22T15:05:52.329Z,1.00
2022-09-22T15:10:59.324Z,1.53
2022-09-22T15:16:02.000Z,0.95
2022-09-22T15:21:11.738Z,0.98
2022-09-22T15:26:22.893Z,0.60
2022-09-22T15:31:28.287Z,0.70
2022-09-22T15:36:33.310Z,0.43
2022-09-22T15:41:37.496Z,1.58
2022-09-22T15:46:41.019Z,1.88
2022-09-22T15:51:45.361Z,1.03
2022-09-22T15:56:52.268Z,0.65
2022-09-22T16:01:57.159Z,0.82
2022-09-22T16:07:03.034Z,1.20
2022-09-22T16:12:11.003Z,1.17
2022-09-22T16:17:13.628Z,2.13
2022-09-22T16:22:17.353Z,1.20
2022-09-22T16:27:21.764Z,1.38
2022-09-22T16:37:27.198Z,2.13
2022-09-22T16:42:30.998Z,2.58
2022-09-22T16:47:33.915Z,3.22
2022-09-22T16:52:38.138Z,2.95
2022-09-22T16:57:42.469Z,2.95
2022-09-22T17:02:45.869Z,6.78
2022-09-22T17:07:49.959Z,3.35
2022-09-22T17:12:56.269Z,2.35
2022-09-22T17:17:58.882Z,2.03
2022-09-22T17:23:01.963Z,3.35
2022-09-22T17:28:06.495Z,5.10
2022-09-22T17:33:09.232Z,3.80
2022-09-22T17:38:11.810Z,4.43
2022-09-22T17:43:20.285Z,5.32
2022-09-22T17:48:40.102Z,6.72
2022-09-22T17:54:00.635Z,8.05
2022-09-22T17:59:04.906Z,7.90
2022-09-22T18:04:07.444Z,7.45
2022-09-22T18:09:09.872Z,9.07
2022-09-22T18:14:14.736Z,8.77
2022-09-22T18:19:17.387Z,15.90
2022-09-22T18:24:20.351Z,10.35
2022-09-22T18:29:25.151Z,12.65
2022-09-22T18:34:31.804Z,8.95
2022-09-22T18:39:35.240Z,6.03
2022-09-22T18:44:39.969Z,9.00
2022-09-22T18:49:43.075Z,10.35
2022-09-22T18:54:46.678Z,6.47
2022-09-22T18:59:51.025Z,7.07
2022-09-22T19:09:56.545Z,5.13
2022-09-22T19:15:01.374Z,4.18
2022-09-22T19:20:04.216Z,6.20
2022-09-22T19:25:07.520Z,6.45
2022-09-22T19:30:13.261Z,6.05
2022-09-22T19:35:17.174Z,7.40
2022-09-22T19:40:20.432Z,4.00
2022-09-22T19:45:27.389Z,8.00
2022-09-22T19:50:30.175Z,8.23
2022-09-22T19:55:33.162Z,4.15
2022-09-22T20:00:39.829Z,5.35
2022-09-22T20:05:42.544Z,6.97
2022-09-22T20:11:16.355Z,6.13
2022-09-22T20:16:21.970Z,5.43
2022-09-22T20:21:28.885Z,2.90
2022-09-22T20:26:32.289Z,6.72
2022-09-22T20:31:36.406Z,5.60
2022-09-22T20:36:39.342Z,7.43
2022-09-22T20:41:42.290Z,13.23
2022-09-22T20:46:48.315Z,28.33
2022-09-22T20:51:51.580Z,25.20
2022-09-22T20:56:57.279Z,14.85
2022-09-22T21:02:04.088Z,15.68
2022-09-22T21:07:06.933Z,11.50
2022-09-22T21:12:10.021Z,10.52
2022-09-22T21:17:15.460Z,10.43
2022-09-22T21:22:18.106Z,10.82
2022-09-22T21:27:21.333Z,7.47
2022-09-22T21:32:25.458Z,8.82
2022-09-22T21:37:28.126Z,5.53
2022-09-22T21:42:31.457Z,7.82
2022-09-22T21:47:35.488Z,8.65
2022-09-22T21:52:38.798Z,6.30
2022-09-22T21:57:41.241Z,6.55
2022-09-22T22:03:02.615Z,6.15
2022-09-22T22:08:06.190Z,4.28
2022-09-22T22:13:09.404Z,9.35
2022-09-22T22:18:13.192Z,5.88
2022-09-22T22:23:15.593Z,6.07
2022-09-22T22:28:18.072Z,5.88
2022-09-22T22:33:22.462Z,8.73
2022-09-22T22:38:25.762Z,3.67
2022-09-22T22:43:28.217Z,9.32
2022-09-22T22:48:32.471Z,7.65
2022-09-22T22:53:36.017Z,4.07
2022-09-22T22:58:39.639Z,4.55
2022-09-22T23:03:45.941Z,6.10
2022-09-22T23:08:48.787Z,5.88
2022-09-22T23:13:54.791Z,4.60
2022-09-22T23:19:01.334Z,4.95
2022-09-22T23:24:05.111Z,8.55
2022-09-22T23:29:07.697Z,7.07
2022-09-22T23:34:11.553Z,7.97
2022-09-22T23:39:14.069Z,5.50
2022-09-22T23:44:16.841Z,8.82
2022-09-22T23:49:20.895Z,5.00
2022-09-22T23:54:23.611Z,5.30
2022-09-22T23:59:26.043Z,4.55
